sensor_id;sensor_type;location;lat;lon;timestamp;P1;durP1;ratioP1;P2;durP2;ratioP2
30613;SDS011;17381;51.690;5.270;2023-04-26T00:01:36;6.95;;;3.50;;
30613;SDS011;17381;51.690;5.270;2023-04-26T00:04:13;8.13;;;4.22;;
30613;SDS011;17381;51.690;5.270;2023-04-26T00:06:42;6.90;;;3.92;;
30613;SDS011;17381;51.690;5.270;2023-04-26T00:09:13;6.22;;;3.63;;
30613;SDS011;17381;51.690;5.270;2023-04-26T00:11:43;6.97;;;4.05;;
30613;SDS011;17381;51.690;5.270;2023-04-26T00:14:15;7.18;;;3.83;;
30613;SDS011;17381;51.690;5.270;2023-04-26T00:16:55;7.75;;;4.00;;
30613;SDS011;17381;51.690;5.270;2023-04-26T00:19:32;8.00;;;3.90;;
30613;SDS011;17381;51.690;5.270;2023-04-26T00:22:12;8.02;;;4.07;;
30613;SDS011;17381;51.690;5.270;2023-04-26T00:24:40;9.00;;;4.32;;
30613;SDS011;17381;51.690;5.270;2023-04-26T00:27:16;7.60;;;3.97;;
30613;SDS011;17381;51.690;5.270;2023-04-26T00:29:49;7.32;;;3.80;;
30613;SDS011;17381;51.690;5.270;2023-04-26T00:32:15;7.68;;;4.82;;
30613;SDS011;17381;51.690;5.270;2023-04-26T00:35:05;8.80;;;4.72;;
30613;SDS011;17381;51.690;5.270;2023-04-26T00:37:49;9.45;;;4.50;;
30613;SDS011;17381;51.690;5.270;2023-04-26T00:40:27;8.25;;;4.65;;
30613;SDS011;17381;51.690;5.270;2023-04-26T00:43:09;7.38;;;4.07;;
30613;SDS011;17381;51.690;5.270;2023-04-26T00:45:41;7.25;;;3.90;;
30613;SDS011;17381;51.690;5.270;2023-04-26T00:48:07;11.50;;;4.80;;
30613;SDS011;17381;51.690;5.270;2023-04-26T00:50:55;8.10;;;4.15;;
30613;SDS011;17381;51.690;5.270;2023-04-26T00:53:30;8.23;;;3.65;;
30613;SDS011;17381;51.690;5.270;2023-04-26T00:56:00;6.82;;;3.70;;
30613;SDS011;17381;51.690;5.270;2023-04-26T00:58:52;8.73;;;4.07;;
30613;SDS011;17381;51.690;5.270;2023-04-26T01:01:21;7.88;;;4.43;;
30613;SDS011;17381;51.690;5.270;2023-04-26T01:03:58;6.20;;;3.17;;
30613;SDS011;17381;51.690;5.270;2023-04-26T01:06:45;5.90;;;3.38;;
30613;SDS011;17381;51.690;5.270;2023-04-26T01:09:14;6.45;;;3.63;;
30613;SDS011;17381;51.690;5.270;2023-04-26T01:11:43;6.10;;;3.55;;
30613;SDS011;17381;51.690;5.270;2023-04-26T01:14:15;6.45;;;3.55;;
30613;SDS011;17381;51.690;5.270;2023-04-26T01:16:42;8.10;;;4.00;;
30613;SDS011;17381;51.690;5.270;2023-04-26T01:19:17;6.85;;;3.90;;
30613;SDS011;17381;51.690;5.270;2023-04-26T01:21:49;5.53;;;3.38;;
30613;SDS011;17381;51.690;5.270;2023-04-26T01:24:24;6.68;;;3.72;;
30613;SDS011;17381;51.690;5.270;2023-04-26T01:26:56;6.57;;;3.65;;
30613;SDS011;17381;51.690;5.270;2023-04-26T01:29:25;7.10;;;3.65;;
30613;SDS011;17381;51.690;5.270;2023-04-26T01:31:55;7.03;;;3.60;;
30613;SDS011;17381;51.690;5.270;2023-04-26T01:34:33;6.70;;;3.80;;
30613;SDS011;17381;51.690;5.270;2023-04-26T01:37:12;5.68;;;3.33;;
30613;SDS011;17381;51.690;5.270;2023-04-26T01:39:43;6.50;;;3.60;;
30613;SDS011;17381;51.690;5.270;2023-04-26T01:42:18;7.25;;;3.25;;
30613;SDS011;17381;51.690;5.270;2023-04-26T01:45:01;5.82;;;3.15;;
30613;SDS011;17381;51.690;5.270;2023-04-26T01:47:54;5.78;;;2.97;;
30613;SDS011;17381;51.690;5.270;2023-04-26T01:50:30;7.13;;;3.20;;
30613;SDS011;17381;51.690;5.270;2023-04-26T01:52:59;7.00;;;2.88;;
30613;SDS011;17381;51.690;5.270;2023-04-26T01:55:34;7.35;;;3.47;;
30613;SDS011;17381;51.690;5.270;2023-04-26T01:58:05;6.53;;;2.95;;
30613;SDS011;17381;51.690;5.270;2023-04-26T02:00:37;6.53;;;3.88;;
30613;SDS011;17381;51.690;5.270;2023-04-26T02:03:06;7.35;;;3.60;;
30613;SDS011;17381;51.690;5.270;2023-04-26T02:05:57;6.47;;;3.40;;
30613;SDS011;17381;51.690;5.270;2023-04-26T02:08:37;5.82;;;3.33;;
30613;SDS011;17381;51.690;5.270;2023-04-26T02:11:11;10.30;;;3.60;;
30613;SDS011;17381;51.690;5.270;2023-04-26T02:13:48;5.85;;;3.65;;
30613;SDS011;17381;51.690;5.270;2023-04-26T02:16:21;6.68;;;3.92;;
30613;SDS011;17381;51.690;5.270;2023-04-26T02:18:50;7.40;;;4.13;;
30613;SDS011;17381;51.690;5.270;2023-04-26T02:21:20;5.97;;;3.30;;
30613;SDS011;17381;51.690;5.270;2023-04-26T02:23:52;6.70;;;3.22;;
30613;SDS011;17381;51.690;5.270;2023-04-26T02:26:29;6.28;;;3.30;;
30613;SDS011;17381;51.690;5.270;2023-04-26T02:29:03;8.50;;;3.45;;
30613;SDS011;17381;51.690;5.270;2023-04-26T02:31:41;10.15;;;3.90;;
30613;SDS011;17381;51.690;5.270;2023-04-26T02:34:11;9.90;;;3.47;;
30613;SDS011;17381;51.690;5.270;2023-04-26T02:36:51;7.57;;;3.78;;
30613;SDS011;17381;51.690;5.270;2023-04-26T02:39:34;7.72;;;4.00;;
30613;SDS011;17381;51.690;5.270;2023-04-26T02:42:08;6.13;;;3.67;;
30613;SDS011;17381;51.690;5.270;2023-04-26T02:44:38;8.13;;;4.18;;
30613;SDS011;17381;51.690;5.270;2023-04-26T02:49:48;9.60;;;4.13;;
30613;SDS011;17381;51.690;5.270;2023-04-26T02:52:31;7.40;;;3.92;;
30613;SDS011;17381;51.690;5.270;2023-04-26T02:55:03;6.55;;;4.10;;
30613;SDS011;17381;51.690;5.270;2023-04-26T02:57:32;7.00;;;3.67;;
30613;SDS011;17381;51.690;5.270;2023-04-26T03:00:09;7.15;;;3.25;;
30613;SDS011;17381;51.690;5.270;2023-04-26T03:02:35;5.60;;;3.10;;
30613;SDS011;17381;51.690;5.270;2023-04-26T03:05:13;6.78;;;3.45;;
30613;SDS011;17381;51.690;5.270;2023-04-26T03:07:47;5.82;;;3.63;;
30613;SDS011;17381;51.690;5.270;2023-04-26T03:10:18;5.50;;;3.38;;
30613;SDS011;17381;51.690;5.270;2023-04-26T03:12:50;5.18;;;3.10;;
30613;SDS011;17381;51.690;5.270;2023-04-26T03:15:35;6.60;;;3.30;;
30613;SDS011;17381;51.690;5.270;2023-04-26T03:18:33;8.27;;;3.50;;
30613;SDS011;17381;51.690;5.270;2023-04-26T03:21:11;6.45;;;3.70;;
30613;SDS011;17381;51.690;5.270;2023-04-26T03:23:41;6.90;;;3.90;;
30613;SDS011;17381;51.690;5.270;2023-04-26T03:26:24;7.05;;;4.38;;
30613;SDS011;17381;51.690;5.270;2023-04-26T03:29:09;9.68;;;4.68;;
30613;SDS011;17381;51.690;5.270;2023-04-26T03:31:45;9.68;;;4.85;;
30613;SDS011;17381;51.690;5.270;2023-04-26T03:34:23;12.00;;;5.68;;
30613;SDS011;17381;51.690;5.270;2023-04-26T03:36:54;8.27;;;4.22;;
30613;SDS011;17381;51.690;5.270;2023-04-26T03:39:44;11.02;;;4.53;;
30613;SDS011;17381;51.690;5.270;2023-04-26T03:42:47;8.30;;;4.80;;
30613;SDS011;17381;51.690;5.270;2023-04-26T03:45:28;7.55;;;4.07;;
30613;SDS011;17381;51.690;5.270;2023-04-26T03:48:10;7.95;;;4.30;;
30613;SDS011;17381;51.690;5.270;2023-04-26T03:50:44;10.73;;;4.93;;
30613;SDS011;17381;51.690;5.270;2023-04-26T03:53:17;8.80;;;4.78;;
30613;SDS011;17381;51.690;5.270;2023-04-26T03:55:55;10.45;;;5.20;;
30613;SDS011;17381;51.690;5.270;2023-04-26T03:58:25;9.90;;;5.65;;
30613;SDS011;17381;51.690;5.270;2023-04-26T04:00:57;12.05;;;5.60;;
30613;SDS011;17381;51.690;5.270;2023-04-26T04:03:34;14.90;;;6.75;;
30613;SDS011;17381;51.690;5.270;2023-04-26T04:06:17;9.95;;;5.75;;
30613;SDS011;17381;51.690;5.270;2023-04-26T04:09:07;13.85;;;6.60;;
30613;SDS011;17381;51.690;5.270;2023-04-26T04:11:58;7.25;;;4.45;;
30613;SDS011;17381;51.690;5.270;2023-04-26T04:14:39;23.92;;;6.38;;
30613;SDS011;17381;51.690;5.270;2023-04-26T04:17:39;9.98;;;5.85;;
30613;SDS011;17381;51.690;5.270;2023-04-26T04:20:42;9.30;;;5.57;;
30613;SDS011;17381;51.690;5.270;2023-04-26T04:26:32;12.32;;;6.15;;
30613;SDS011;17381;51.690;5.270;2023-04-26T04:29:11;9.05;;;5.18;;
30613;SDS011;17381;51.690;5.270;2023-04-26T04:32:13;9.10;;;4.80;;
30613;SDS011;17381;51.690;5.270;2023-04-26T04:34:56;8.88;;;5.38;;
30613;SDS011;17381;51.690;5.270;2023-04-26T04:38:12;10.80;;;5.90;;
30613;SDS011;17381;51.690;5.270;2023-04-26T04:40:46;8.65;;;4.72;;
30613;SDS011;17381;51.690;5.270;2023-04-26T04:43:18;9.13;;;4.97;;
30613;SDS011;17381;51.690;5.270;2023-04-26T04:46:06;9.13;;;5.05;;
30613;SDS011;17381;51.690;5.270;2023-04-26T04:48:35;8.77;;;5.30;;
30613;SDS011;17381;51.690;5.270;2023-04-26T04:51:11;11.30;;;5.70;;
30613;SDS011;17381;51.690;5.270;2023-04-26T04:53:56;9.32;;;5.20;;
30613;SDS011;17381;51.690;5.270;2023-04-26T04:56:46;12.55;;;6.22;;
30613;SDS011;17381;51.690;5.270;2023-04-26T04:59:30;10.63;;;5.70;;
30613;SDS011;17381;51.690;5.270;2023-04-26T05:02:16;9.95;;;5.60;;
30613;SDS011;17381;51.690;5.270;2023-04-26T05:05:06;13.23;;;6.13;;
30613;SDS011;17381;51.690;5.270;2023-04-26T05:07:33;9.70;;;5.07;;
30613;SDS011;17381;51.690;5.270;2023-04-26T05:10:19;9.88;;;6.13;;
30613;SDS011;17381;51.690;5.270;2023-04-26T05:12:57;10.10;;;6.18;;
30613;SDS011;17381;51.690;5.270;2023-04-26T05:15:39;10.95;;;6.25;;
30613;SDS011;17381;51.690;5.270;2023-04-26T05:18:14;11.60;;;6.53;;
30613;SDS011;17381;51.690;5.270;2023-04-26T05:20:52;12.98;;;6.00;;
30613;SDS011;17381;51.690;5.270;2023-04-26T05:23:33;13.93;;;7.00;;
30613;SDS011;17381;51.690;5.270;2023-04-26T05:26:03;11.43;;;6.85;;
30613;SDS011;17381;51.690;5.270;2023-04-26T05:29:10;13.18;;;6.82;;
30613;SDS011;17381;51.690;5.270;2023-04-26T05:31:53;10.85;;;6.93;;
30613;SDS011;17381;51.690;5.270;2023-04-26T05:34:48;12.02;;;6.82;;
30613;SDS011;17381;51.690;5.270;2023-04-26T05:37:23;12.13;;;6.53;;
30613;SDS011;17381;51.690;5.270;2023-04-26T05:40:09;15.02;;;7.28;;
30613;SDS011;17381;51.690;5.270;2023-04-26T05:43:11;12.07;;;6.65;;
30613;SDS011;17381;51.690;5.270;2023-04-26T05:46:03;12.88;;;6.47;;
30613;SDS011;17381;51.690;5.270;2023-04-26T05:49:14;11.02;;;6.25;;
30613;SDS011;17381;51.690;5.270;2023-04-26T05:52:23;11.70;;;5.88;;
30613;SDS011;17381;51.690;5.270;2023-04-26T05:54:57;12.07;;;6.20;;
30613;SDS011;17381;51.690;5.270;2023-04-26T05:57:26;14.32;;;6.47;;
30613;SDS011;17381;51.690;5.270;2023-04-26T06:00:03;11.63;;;6.43;;
30613;SDS011;17381;51.690;5.270;2023-04-26T06:03:02;12.02;;;6.43;;
30613;SDS011;17381;51.690;5.270;2023-04-26T06:05:34;13.63;;;6.43;;
30613;SDS011;17381;51.690;5.270;2023-04-26T06:08:32;11.70;;;6.85;;
30613;SDS011;17381;51.690;5.270;2023-04-26T06:11:22;12.15;;;6.57;;
30613;SDS011;17381;51.690;5.270;2023-04-26T06:13:58;15.25;;;7.47;;
30613;SDS011;17381;51.690;5.270;2023-04-26T06:16:36;11.07;;;6.30;;
30613;SDS011;17381;51.690;5.270;2023-04-26T06:19:17;14.20;;;7.05;;
30613;SDS011;17381;51.690;5.270;2023-04-26T06:22:01;13.65;;;7.20;;
30613;SDS011;17381;51.690;5.270;2023-04-26T06:24:52;19.33;;;7.07;;
30613;SDS011;17381;51.690;5.270;2023-04-26T06:27:30;15.23;;;7.53;;
30613;SDS011;17381;51.690;5.270;2023-04-26T06:30:09;13.88;;;6.97;;
30613;SDS011;17381;51.690;5.270;2023-04-26T06:32:45;13.82;;;6.90;;
30613;SDS011;17381;51.690;5.270;2023-04-26T06:35:31;16.00;;;7.75;;
30613;SDS011;17381;51.690;5.270;2023-04-26T06:38:16;12.82;;;7.13;;
30613;SDS011;17381;51.690;5.270;2023-04-26T06:40:58;10.63;;;6.18;;
30613;SDS011;17381;51.690;5.270;2023-04-26T06:43:40;14.20;;;7.45;;
30613;SDS011;17381;51.690;5.270;2023-04-26T06:46:32;12.73;;;6.63;;
30613;SDS011;17381;51.690;5.270;2023-04-26T06:49:09;11.40;;;6.68;;
30613;SDS011;17381;51.690;5.270;2023-04-26T06:51:49;11.55;;;6.47;;
30613;SDS011;17381;51.690;5.270;2023-04-26T06:54:18;11.57;;;6.68;;
30613;SDS011;17381;51.690;5.270;2023-04-26T06:57:00;12.13;;;6.40;;
30613;SDS011;17381;51.690;5.270;2023-04-26T06:59:30;11.30;;;5.97;;
30613;SDS011;17381;51.690;5.270;2023-04-26T07:02:07;8.45;;;5.05;;
30613;SDS011;17381;51.690;5.270;2023-04-26T07:04:36;12.68;;;6.60;;
30613;SDS011;17381;51.690;5.270;2023-04-26T07:07:11;11.50;;;6.28;;
30613;SDS011;17381;51.690;5.270;2023-04-26T07:09:51;13.07;;;5.68;;
30613;SDS011;17381;51.690;5.270;2023-04-26T07:12:25;10.70;;;5.40;;
30613;SDS011;17381;51.690;5.270;2023-04-26T07:15:00;10.57;;;4.82;;
30613;SDS011;17381;51.690;5.270;2023-04-26T07:17:46;12.80;;;4.97;;
30613;SDS011;17381;51.690;5.270;2023-04-26T07:20:27;11.52;;;5.20;;
30613;SDS011;17381;51.690;5.270;2023-04-26T07:23:03;10.60;;;4.80;;
30613;SDS011;17381;51.690;5.270;2023-04-26T07:25:42;8.48;;;4.60;;
30613;SDS011;17381;51.690;5.270;2023-04-26T07:31:30;9.32;;;3.83;;
30613;SDS011;17381;51.690;5.270;2023-04-26T07:34:04;7.20;;;3.75;;
30613;SDS011;17381;51.690;5.270;2023-04-26T07:36:36;8.07;;;3.08;;
30613;SDS011;17381;51.690;5.270;2023-04-26T07:39:20;4.70;;;2.20;;
30613;SDS011;17381;51.690;5.270;2023-04-26T07:42:08;7.70;;;3.05;;
30613;SDS011;17381;51.690;5.270;2023-04-26T07:44:42;6.25;;;2.08;;
30613;SDS011;17381;51.690;5.270;2023-04-26T07:47:12;5.30;;;1.75;;
30613;SDS011;17381;51.690;5.270;2023-04-26T07:49:38;8.32;;;3.33;;
30613;SDS011;17381;51.690;5.270;2023-04-26T07:52:08;7.13;;;2.60;;
30613;SDS011;17381;51.690;5.270;2023-04-26T07:54:49;6.30;;;2.22;;
30613;SDS011;17381;51.690;5.270;2023-04-26T07:57:27;7.55;;;2.40;;
30613;SDS011;17381;51.690;5.270;2023-04-26T08:00:30;8.90;;;2.08;;
30613;SDS011;17381;51.690;5.270;2023-04-26T08:03:24;5.47;;;2.28;;
30613;SDS011;17381;51.690;5.270;2023-04-26T08:06:15;4.60;;;1.73;;
30613;SDS011;17381;51.690;5.270;2023-04-26T08:11:53;6.32;;;1.85;;
30613;SDS011;17381;51.690;5.270;2023-04-26T08:14:35;7.95;;;2.28;;
30613;SDS011;17381;51.690;5.270;2023-04-26T08:17:19;6.45;;;2.20;;
30613;SDS011;17381;51.690;5.270;2023-04-26T08:19:51;4.03;;;1.35;;
30613;SDS011;17381;51.690;5.270;2023-04-26T08:22:18;4.40;;;1.55;;
30613;SDS011;17381;51.690;5.270;2023-04-26T08:25:04;5.15;;;1.23;;
30613;SDS011;17381;51.690;5.270;2023-04-26T08:27:30;6.20;;;1.60;;
30613;SDS011;17381;51.690;5.270;2023-04-26T08:33:13;4.25;;;1.45;;
30613;SDS011;17381;51.690;5.270;2023-04-26T08:36:14;3.97;;;1.83;;
30613;SDS011;17381;51.690;5.270;2023-04-26T08:39:05;4.72;;;1.42;;
30613;SDS011;17381;51.690;5.270;2023-04-26T08:41:51;6.35;;;1.65;;
30613;SDS011;17381;51.690;5.270;2023-04-26T08:44:52;5.60;;;1.40;;
30613;SDS011;17381;51.690;5.270;2023-04-26T08:47:42;4.60;;;1.25;;
30613;SDS011;17381;51.690;5.270;2023-04-26T08:50:39;4.55;;;1.35;;
30613;SDS011;17381;51.690;5.270;2023-04-26T08:53:29;2.85;;;1.02;;
30613;SDS011;17381;51.690;5.270;2023-04-26T08:56:02;3.78;;;1.50;;
30613;SDS011;17381;51.690;5.270;2023-04-26T08:58:45;4.97;;;1.20;;
30613;SDS011;17381;51.690;5.270;2023-04-26T09:01:46;3.13;;;0.93;;
30613;SDS011;17381;51.690;5.270;2023-04-26T09:04:18;4.50;;;1.33;;
30613;SDS011;17381;51.690;5.270;2023-04-26T09:06:53;3.08;;;1.20;;
30613;SDS011;17381;51.690;5.270;2023-04-26T09:09:26;4.78;;;1.42;;
30613;SDS011;17381;51.690;5.270;2023-04-26T09:11:59;3.45;;;1.30;;
30613;SDS011;17381;51.690;5.270;2023-04-26T09:14:37;4.75;;;1.40;;
30613;SDS011;17381;51.690;5.270;2023-04-26T09:17:37;3.90;;;1.15;;
30613;SDS011;17381;51.690;5.270;2023-04-26T09:20:31;5.55;;;1.52;;
30613;SDS011;17381;51.690;5.270;2023-04-26T09:23:29;6.28;;;1.48;;
30613;SDS011;17381;51.690;5.270;2023-04-26T09:33:44;4.55;;;1.45;;
30613;SDS011;17381;51.690;5.270;2023-04-26T09:40:13;7.28;;;1.38;;
30613;SDS011;17381;51.690;5.270;2023-04-26T09:52:07;3.90;;;1.00;;
30613;SDS011;17381;51.690;5.270;2023-04-26T09:55:38;4.95;;;1.40;;
30613;SDS011;17381;51.690;5.270;2023-04-26T09:58:24;5.53;;;1.60;;
30613;SDS011;17381;51.690;5.270;2023-04-26T10:00:57;4.15;;;1.77;;
30613;SDS011;17381;51.690;5.270;2023-04-26T10:03:40;5.93;;;1.40;;
30613;SDS011;17381;51.690;5.270;2023-04-26T10:06:13;4.72;;;1.33;;
30613;SDS011;17381;51.690;5.270;2023-04-26T10:08:49;6.25;;;1.70;;
30613;SDS011;17381;51.690;5.270;2023-04-26T10:11:46;5.18;;;1.42;;
30613;SDS011;17381;51.690;5.270;2023-04-26T10:14:56;3.53;;;1.10;;
30613;SDS011;17381;51.690;5.270;2023-04-26T10:17:43;6.70;;;1.42;;
30613;SDS011;17381;51.690;5.270;2023-04-26T10:20:22;4.47;;;1.55;;
30613;SDS011;17381;51.690;5.270;2023-04-26T10:23:35;7.25;;;1.67;;
30613;SDS011;17381;51.690;5.270;2023-04-26T10:26:55;5.18;;;1.45;;
30613;SDS011;17381;51.690;5.270;2023-04-26T10:33:23;3.10;;;1.50;;
30613;SDS011;17381;51.690;5.270;2023-04-26T10:39:27;5.40;;;1.38;;
30613;SDS011;17381;51.690;5.270;2023-04-26T10:42:36;4.53;;;1.67;;
30613;SDS011;17381;51.690;5.270;2023-04-26T10:45:47;7.70;;;2.38;;
30613;SDS011;17381;51.690;5.270;2023-04-26T10:48:15;7.95;;;2.30;;
30613;SDS011;17381;51.690;5.270;2023-04-26T10:51:34;6.45;;;2.50;;
30613;SDS011;17381;51.690;5.270;2023-04-26T10:54:43;6.40;;;2.60;;
30613;SDS011;17381;51.690;5.270;2023-04-26T10:57:55;7.60;;;2.47;;
30613;SDS011;17381;51.690;5.270;2023-04-26T11:00:30;5.82;;;2.47;;
30613;SDS011;17381;51.690;5.270;2023-04-26T11:03:12;9.02;;;2.33;;
30613;SDS011;17381;51.690;5.270;2023-04-26T11:48:18;7.35;;;2.78;;
30613;SDS011;17381;51.690;5.270;2023-04-26T11:59:53;7.72;;;2.22;;
30613;SDS011;17381;51.690;5.270;2023-04-26T12:28:22;5.43;;;2.05;;
30613;SDS011;17381;51.690;5.270;2023-04-26T12:31:32;9.77;;;2.05;;
30613;SDS011;17381;51.690;5.270;2023-04-26T12:34:20;5.20;;;2.00;;
30613;SDS011;17381;51.690;5.270;2023-04-26T12:40:38;6.72;;;2.35;;
30613;SDS011;17381;51.690;5.270;2023-04-26T12:47:51;3.72;;;1.83;;
30613;SDS011;17381;51.690;5.270;2023-04-26T14:14:06;3.67;;;1.80;;
30613;SDS011;17381;51.690;5.270;2023-04-26T14:16:49;8.60;;;6.85;;
30613;SDS011;17381;51.690;5.270;2023-04-26T14:19:31;4.50;;;2.33;;
30613;SDS011;17381;51.690;5.270;2023-04-26T14:22:14;6.55;;;2.45;;
30613;SDS011;17381;51.690;5.270;2023-04-26T14:25:00;6.70;;;2.75;;
30613;SDS011;17381;51.690;5.270;2023-04-26T14:34:18;6.57;;;3.67;;
30613;SDS011;17381;51.690;5.270;2023-04-26T14:58:36;3.95;;;2.05;;
30613;SDS011;17381;51.690;5.270;2023-04-26T15:28:24;8.60;;;2.90;;
30613;SDS011;17381;51.690;5.270;2023-04-26T15:37:11;6.13;;;1.60;;
30613;SDS011;17381;51.690;5.270;2023-04-26T15:40:14;2.50;;;1.52;;
30613;SDS011;17381;51.690;5.270;2023-04-26T15:43:51;5.10;;;1.63;;
30613;SDS011;17381;51.690;5.270;2023-04-26T15:47:33;6.13;;;1.85;;
30613;SDS011;17381;51.690;5.270;2023-04-26T15:50:56;3.70;;;1.50;;
30613;SDS011;17381;51.690;5.270;2023-04-26T15:58:20;16.88;;;9.27;;
30613;SDS011;17381;51.690;5.270;2023-04-26T16:01:23;9.35;;;2.90;;
30613;SDS011;17381;51.690;5.270;2023-04-26T16:04:09;5.13;;;1.90;;
30613;SDS011;17381;51.690;5.270;2023-04-26T16:07:11;3.70;;;1.50;;
30613;SDS011;17381;51.690;5.270;2023-04-26T17:49:10;9.60;;;4.65;;
30613;SDS011;17381;51.690;5.270;2023-04-26T17:57:27;13.25;;;5.78;;
30613;SDS011;17381;51.690;5.270;2023-04-26T18:46:37;7.20;;;1.65;;
30613;SDS011;17381;51.690;5.270;2023-04-26T18:49:38;3.55;;;1.70;;
30613;SDS011;17381;51.690;5.270;2023-04-26T18:52:34;4.90;;;1.58;;
30613;SDS011;17381;51.690;5.270;2023-04-26T18:55:46;3.50;;;1.35;;
30613;SDS011;17381;51.690;5.270;2023-04-26T19:22:00;4.50;;;1.65;;
30613;SDS011;17381;51.690;5.270;2023-04-26T21:03:46;14.80;;;6.53;;
30613;SDS011;17381;51.690;5.270;2023-04-26T21:06:53;22.40;;;10.80;;
30613;SDS011;17381;51.690;5.270;2023-04-26T21:09:36;29.85;;;11.98;;
30613;SDS011;17381;51.690;5.270;2023-04-26T21:12:20;19.75;;;8.93;;
30613;SDS011;17381;51.690;5.270;2023-04-26T21:15:23;15.55;;;7.95;;
30613;SDS011;17381;51.690;5.270;2023-04-26T21:18:15;30.67;;;12.23;;
30613;SDS011;17381;51.690;5.270;2023-04-26T21:21:30;12.40;;;5.07;;
30613;SDS011;17381;51.690;5.270;2023-04-26T21:24:23;8.07;;;3.42;;
30613;SDS011;17381;51.690;5.270;2023-04-26T21:27:29;8.68;;;3.30;;
30613;SDS011;17381;51.690;5.270;2023-04-26T21:30:31;10.73;;;4.47;;
30613;SDS011;17381;51.690;5.270;2023-04-26T21:33:41;8.45;;;4.10;;
30613;SDS011;17381;51.690;5.270;2023-04-26T21:36:46;12.75;;;6.10;;
30613;SDS011;17381;51.690;5.270;2023-04-26T21:39:47;6.85;;;3.90;;
30613;SDS011;17381;51.690;5.270;2023-04-26T21:42:39;6.63;;;3.28;;
30613;SDS011;17381;51.690;5.270;2023-04-26T21:45:41;8.00;;;3.13;;
30613;SDS011;17381;51.690;5.270;2023-04-26T21:48:49;7.97;;;3.90;;
30613;SDS011;17381;51.690;5.270;2023-04-26T21:51:30;8.38;;;3.97;;
30613;SDS011;17381;51.690;5.270;2023-04-26T21:57:15;6.80;;;2.70;;
30613;SDS011;17381;51.690;5.270;2023-04-26T22:00:11;5.60;;;2.70;;
30613;SDS011;17381;51.690;5.270;2023-04-26T22:06:11;8.02;;;3.35;;
30613;SDS011;17381;51.690;5.270;2023-04-26T22:09:28;5.43;;;3.20;;
30613;SDS011;17381;51.690;5.270;2023-04-26T22:12:51;8.27;;;3.60;;
30613;SDS011;17381;51.690;5.270;2023-04-26T22:16:14;9.18;;;3.30;;
30613;SDS011;17381;51.690;5.270;2023-04-26T22:19:09;8.45;;;3.88;;
30613;SDS011;17381;51.690;5.270;2023-04-26T22:21:54;7.47;;;3.80;;
30613;SDS011;17381;51.690;5.270;2023-04-26T22:24:42;8.98;;;3.70;;
30613;SDS011;17381;51.690;5.270;2023-04-26T22:27:33;8.25;;;4.47;;
30613;SDS011;17381;51.690;5.270;2023-04-26T22:34:08;8.00;;;4.57;;
30613;SDS011;17381;51.690;5.270;2023-04-26T22:52:21;11.10;;;4.50;;
30613;SDS011;17381;51.690;5.270;2023-04-26T23:09:00;7.75;;;4.35;;
30613;SDS011;17381;51.690;5.270;2023-04-26T23:33:06;6.70;;;4.07;;
30613;SDS011;17381;51.690;5.270;2023-04-26T23:39:10;6.82;;;3.85;;
30613;SDS011;17381;51.690;5.270;2023-04-26T23:41:57;7.22;;;3.70;;
30613;SDS011;17381;51.690;5.270;2023-04-26T23:45:07;7.47;;;4.05;;
30613;SDS011;17381;51.690;5.270;2023-04-26T23:47:58;7.88;;;4.43;;
30613;SDS011;17381;51.690;5.270;2023-04-26T23:54:32;7.90;;;4.00;;
